Terminal Aerodrome Forecast
Issued by NWS

Home | Current Version | Previous Version | Text Only | Print | Product List | Glossary On
Versions: 1 2 3 4 5 6 7 8 9 10 11 12 13 14 15 16
000
FTUS44 KJAN 311700
TAFHKS
TAF
KHKS 311720Z 3118/0118 33014G21KT P6SM SKC
     FM312100 35016G28KT P6SM SCT040
     FM010200 34010KT P6SM SKC=

USA.gov is the U.S. government's official web portal to all federal, state and local government web resources and services.